sensor_id;sensor_type;location;lat;lon;timestamp;P1;durP1;ratioP1;P2;durP2;ratioP2
54125;SDS011;40360;52.992;6.796;2024-02-26T00:00:23;22.30;;;15.38;;
54125;SDS011;40360;52.992;6.796;2024-02-26T00:02:49;22.25;;;15.70;;
54125;SDS011;40360;52.992;6.796;2024-02-26T00:05:14;22.05;;;15.10;;
54125;SDS011;40360;52.992;6.796;2024-02-26T00:07:40;22.08;;;15.38;;
54125;SDS011;40360;52.992;6.796;2024-02-26T00:10:15;22.15;;;15.25;;
54125;SDS011;40360;52.992;6.796;2024-02-26T00:12:40;21.70;;;14.73;;
54125;SDS011;40360;52.992;6.796;2024-02-26T00:15:12;20.73;;;13.38;;
54125;SDS011;40360;52.992;6.796;2024-02-26T00:17:39;19.88;;;13.50;;
54125;SDS011;40360;52.992;6.796;2024-02-26T00:20:06;19.60;;;13.90;;
54125;SDS011;40360;52.992;6.796;2024-02-26T00:22:40;22.60;;;13.70;;
54125;SDS011;40360;52.992;6.796;2024-02-26T00:25:20;20.45;;;13.98;;
54125;SDS011;40360;52.992;6.796;2024-02-26T00:27:46;21.38;;;14.90;;
54125;SDS011;40360;52.992;6.796;2024-02-26T00:30:12;20.05;;;14.15;;
54125;SDS011;40360;52.992;6.796;2024-02-26T00:32:37;22.38;;;14.98;;
54125;SDS011;40360;52.992;6.796;2024-02-26T00:35:03;21.05;;;14.13;;
54125;SDS011;40360;52.992;6.796;2024-02-26T00:37:29;28.08;;;15.00;;
54125;SDS011;40360;52.992;6.796;2024-02-26T00:39:55;22.15;;;13.77;;
54125;SDS011;40360;52.992;6.796;2024-02-26T00:42:25;23.50;;;14.73;;
54125;SDS011;40360;52.992;6.796;2024-02-26T00:44:51;23.38;;;15.15;;
54125;SDS011;40360;52.992;6.796;2024-02-26T00:47:22;24.52;;;15.27;;
54125;SDS011;40360;52.992;6.796;2024-02-26T00:50:00;23.30;;;15.15;;
54125;SDS011;40360;52.992;6.796;2024-02-26T00:52:28;24.80;;;15.55;;
54125;SDS011;40360;52.992;6.796;2024-02-26T00:57:40;25.48;;;14.85;;
54125;SDS011;40360;52.992;6.796;2024-02-26T01:00:06;24.98;;;15.38;;
54125;SDS011;40360;52.992;6.796;2024-02-26T01:02:39;26.85;;;16.30;;
54125;SDS011;40360;52.992;6.796;2024-02-26T01:05:18;26.63;;;16.15;;
54125;SDS011;40360;52.992;6.796;2024-02-26T01:07:48;29.88;;;16.42;;
54125;SDS011;40360;52.992;6.796;2024-02-26T01:10:16;25.40;;;14.98;;
54125;SDS011;40360;52.992;6.796;2024-02-26T01:12:42;31.30;;;17.23;;
54125;SDS011;40360;52.992;6.796;2024-02-26T01:15:08;32.90;;;18.15;;
54125;SDS011;40360;52.992;6.796;2024-02-26T01:17:34;26.20;;;15.98;;
54125;SDS011;40360;52.992;6.796;2024-02-26T01:20:00;28.92;;;17.13;;
54125;SDS011;40360;52.992;6.796;2024-02-26T01:22:26;30.33;;;17.45;;
54125;SDS011;40360;52.992;6.796;2024-02-26T01:24:54;30.88;;;18.00;;
54125;SDS011;40360;52.992;6.796;2024-02-26T01:27:22;28.27;;;16.17;;
54125;SDS011;40360;52.992;6.796;2024-02-26T01:29:53;28.50;;;16.05;;
54125;SDS011;40360;52.992;6.796;2024-02-26T01:32:20;31.10;;;17.27;;
54125;SDS011;40360;52.992;6.796;2024-02-26T01:34:49;32.63;;;18.05;;
54125;SDS011;40360;52.992;6.796;2024-02-26T01:37:15;29.95;;;17.02;;
54125;SDS011;40360;52.992;6.796;2024-02-26T01:39:41;36.22;;;18.73;;
54125;SDS011;40360;52.992;6.796;2024-02-26T01:42:09;31.25;;;18.40;;
54125;SDS011;40360;52.992;6.796;2024-02-26T01:44:36;36.53;;;19.10;;
54125;SDS011;40360;52.992;6.796;2024-02-26T01:47:03;31.67;;;18.30;;
54125;SDS011;40360;52.992;6.796;2024-02-26T01:49:30;33.35;;;19.50;;
54125;SDS011;40360;52.992;6.796;2024-02-26T01:51:56;35.33;;;20.25;;
54125;SDS011;40360;52.992;6.796;2024-02-26T01:54:24;37.20;;;21.00;;
54125;SDS011;40360;52.992;6.796;2024-02-26T01:56:50;39.58;;;22.80;;
54125;SDS011;40360;52.992;6.796;2024-02-26T01:59:16;39.67;;;23.50;;
54125;SDS011;40360;52.992;6.796;2024-02-26T02:01:44;38.78;;;23.40;;
54125;SDS011;40360;52.992;6.796;2024-02-26T02:04:14;39.25;;;22.90;;
54125;SDS011;40360;52.992;6.796;2024-02-26T02:06:47;37.83;;;23.90;;
54125;SDS011;40360;52.992;6.796;2024-02-26T02:09:17;37.10;;;23.38;;
54125;SDS011;40360;52.992;6.796;2024-02-26T02:11:44;38.70;;;23.17;;
54125;SDS011;40360;52.992;6.796;2024-02-26T02:14:10;39.33;;;23.48;;
54125;SDS011;40360;52.992;6.796;2024-02-26T02:16:35;39.75;;;23.95;;
54125;SDS011;40360;52.992;6.796;2024-02-26T02:19:01;38.95;;;23.95;;
54125;SDS011;40360;52.992;6.796;2024-02-26T02:21:27;37.03;;;23.52;;
54125;SDS011;40360;52.992;6.796;2024-02-26T02:23:53;37.55;;;24.67;;
54125;SDS011;40360;52.992;6.796;2024-02-26T02:26:18;37.10;;;23.23;;
54125;SDS011;40360;52.992;6.796;2024-02-26T02:28:45;36.15;;;21.73;;
54125;SDS011;40360;52.992;6.796;2024-02-26T02:31:12;39.35;;;22.95;;
54125;SDS011;40360;52.992;6.796;2024-02-26T02:33:45;41.25;;;23.75;;
54125;SDS011;40360;52.992;6.796;2024-02-26T02:36:11;45.10;;;25.13;;
54125;SDS011;40360;52.992;6.796;2024-02-26T02:38:48;41.65;;;23.10;;
54125;SDS011;40360;52.992;6.796;2024-02-26T02:41:20;39.25;;;23.40;;
54125;SDS011;40360;52.992;6.796;2024-02-26T02:43:46;38.13;;;22.33;;
54125;SDS011;40360;52.992;6.796;2024-02-26T02:46:12;41.05;;;22.95;;
54125;SDS011;40360;52.992;6.796;2024-02-26T02:48:38;37.63;;;21.58;;
54125;SDS011;40360;52.992;6.796;2024-02-26T02:51:04;39.95;;;23.67;;
54125;SDS011;40360;52.992;6.796;2024-02-26T02:53:30;39.45;;;22.63;;
54125;SDS011;40360;52.992;6.796;2024-02-26T02:55:56;41.92;;;23.83;;
54125;SDS011;40360;52.992;6.796;2024-02-26T02:58:21;37.20;;;21.90;;
54125;SDS011;40360;52.992;6.796;2024-02-26T03:00:56;40.17;;;23.92;;
54125;SDS011;40360;52.992;6.796;2024-02-26T03:03:28;40.70;;;25.08;;
54125;SDS011;40360;52.992;6.796;2024-02-26T03:06:12;40.17;;;24.38;;
54125;SDS011;40360;52.992;6.796;2024-02-26T03:08:38;39.13;;;24.15;;
54125;SDS011;40360;52.992;6.796;2024-02-26T03:11:05;39.17;;;23.08;;
54125;SDS011;40360;52.992;6.796;2024-02-26T03:13:31;35.10;;;22.08;;
54125;SDS011;40360;52.992;6.796;2024-02-26T03:15:56;38.45;;;23.17;;
54125;SDS011;40360;52.992;6.796;2024-02-26T03:18:22;36.42;;;23.02;;
54125;SDS011;40360;52.992;6.796;2024-02-26T03:20:48;36.30;;;21.75;;
54125;SDS011;40360;52.992;6.796;2024-02-26T03:23:14;34.97;;;23.20;;
54125;SDS011;40360;52.992;6.796;2024-02-26T03:25:44;31.92;;;20.00;;
54125;SDS011;40360;52.992;6.796;2024-02-26T03:28:13;30.58;;;19.60;;
54125;SDS011;40360;52.992;6.796;2024-02-26T03:30:39;30.70;;;20.13;;
54125;SDS011;40360;52.992;6.796;2024-02-26T03:33:04;31.98;;;19.40;;
54125;SDS011;40360;52.992;6.796;2024-02-26T03:35:30;28.88;;;19.55;;
54125;SDS011;40360;52.992;6.796;2024-02-26T03:37:56;32.65;;;20.38;;
54125;SDS011;40360;52.992;6.796;2024-02-26T03:40:22;27.30;;;17.77;;
54125;SDS011;40360;52.992;6.796;2024-02-26T03:42:47;27.88;;;18.95;;
54125;SDS011;40360;52.992;6.796;2024-02-26T03:45:13;29.52;;;17.33;;
54125;SDS011;40360;52.992;6.796;2024-02-26T03:47:44;27.27;;;18.13;;
54125;SDS011;40360;52.992;6.796;2024-02-26T03:50:10;29.08;;;17.88;;
54125;SDS011;40360;52.992;6.796;2024-02-26T03:52:36;27.88;;;17.65;;
54125;SDS011;40360;52.992;6.796;2024-02-26T03:55:02;25.75;;;17.55;;
54125;SDS011;40360;52.992;6.796;2024-02-26T03:57:28;22.80;;;16.35;;
54125;SDS011;40360;52.992;6.796;2024-02-26T03:59:54;23.95;;;15.82;;
54125;SDS011;40360;52.992;6.796;2024-02-26T04:02:23;24.05;;;16.50;;
54125;SDS011;40360;52.992;6.796;2024-02-26T04:04:50;24.05;;;16.67;;
54125;SDS011;40360;52.992;6.796;2024-02-26T04:07:16;23.38;;;15.45;;
54125;SDS011;40360;52.992;6.796;2024-02-26T04:09:42;21.60;;;15.45;;
54125;SDS011;40360;52.992;6.796;2024-02-26T04:12:08;21.45;;;15.18;;
54125;SDS011;40360;52.992;6.796;2024-02-26T04:14:35;23.05;;;15.05;;
54125;SDS011;40360;52.992;6.796;2024-02-26T04:17:01;20.52;;;13.90;;
54125;SDS011;40360;52.992;6.796;2024-02-26T04:19:27;20.13;;;13.90;;
54125;SDS011;40360;52.992;6.796;2024-02-26T04:21:52;19.30;;;13.63;;
54125;SDS011;40360;52.992;6.796;2024-02-26T04:24:19;18.27;;;12.70;;
54125;SDS011;40360;52.992;6.796;2024-02-26T04:26:45;15.93;;;11.50;;
54125;SDS011;40360;52.992;6.796;2024-02-26T04:29:16;17.60;;;12.05;;
54125;SDS011;40360;52.992;6.796;2024-02-26T04:31:42;14.90;;;10.75;;
54125;SDS011;40360;52.992;6.796;2024-02-26T04:34:08;14.63;;;10.40;;
54125;SDS011;40360;52.992;6.796;2024-02-26T04:36:33;12.63;;;9.15;;
54125;SDS011;40360;52.992;6.796;2024-02-26T04:38:59;13.98;;;9.25;;
54125;SDS011;40360;52.992;6.796;2024-02-26T04:41:25;12.05;;;8.88;;
54125;SDS011;40360;52.992;6.796;2024-02-26T04:43:51;14.02;;;9.15;;
54125;SDS011;40360;52.992;6.796;2024-02-26T04:46:17;11.10;;;8.32;;
54125;SDS011;40360;52.992;6.796;2024-02-26T04:48:56;11.15;;;8.85;;
54125;SDS011;40360;52.992;6.796;2024-02-26T04:51:29;13.13;;;8.48;;
54125;SDS011;40360;52.992;6.796;2024-02-26T04:53:54;12.52;;;8.43;;
54125;SDS011;40360;52.992;6.796;2024-02-26T04:56:21;12.95;;;8.13;;
54125;SDS011;40360;52.992;6.796;2024-02-26T04:58:47;13.73;;;8.68;;
54125;SDS011;40360;52.992;6.796;2024-02-26T05:01:13;11.68;;;8.10;;
54125;SDS011;40360;52.992;6.796;2024-02-26T05:03:39;12.18;;;8.77;;
54125;SDS011;40360;52.992;6.796;2024-02-26T05:06:05;11.82;;;8.65;;
54125;SDS011;40360;52.992;6.796;2024-02-26T05:08:40;12.75;;;9.20;;
54125;SDS011;40360;52.992;6.796;2024-02-26T05:11:14;17.40;;;8.98;;
54125;SDS011;40360;52.992;6.796;2024-02-26T05:13:57;12.82;;;8.07;;
54125;SDS011;40360;52.992;6.796;2024-02-26T05:16:34;12.70;;;8.27;;
54125;SDS011;40360;52.992;6.796;2024-02-26T05:19:01;9.65;;;6.82;;
54125;SDS011;40360;52.992;6.796;2024-02-26T05:21:28;11.25;;;7.10;;
54125;SDS011;40360;52.992;6.796;2024-02-26T05:23:59;9.57;;;6.75;;
54125;SDS011;40360;52.992;6.796;2024-02-26T05:26:25;9.23;;;5.85;;
54125;SDS011;40360;52.992;6.796;2024-02-26T05:29:04;9.60;;;6.13;;
54125;SDS011;40360;52.992;6.796;2024-02-26T05:31:30;7.05;;;5.50;;
54125;SDS011;40360;52.992;6.796;2024-02-26T05:37:13;8.07;;;5.53;;
54125;SDS011;40360;52.992;6.796;2024-02-26T05:39:39;7.75;;;5.63;;
54125;SDS011;40360;52.992;6.796;2024-02-26T05:42:05;8.13;;;6.10;;
54125;SDS011;40360;52.992;6.796;2024-02-26T05:44:31;10.45;;;6.68;;
54125;SDS011;40360;52.992;6.796;2024-02-26T05:46:56;8.55;;;5.63;;
54125;SDS011;40360;52.992;6.796;2024-02-26T05:49:22;7.10;;;5.70;;
54125;SDS011;40360;52.992;6.796;2024-02-26T05:51:48;7.93;;;5.93;;
54125;SDS011;40360;52.992;6.796;2024-02-26T05:54:14;8.55;;;5.90;;
54125;SDS011;40360;52.992;6.796;2024-02-26T05:56:39;9.68;;;6.70;;
54125;SDS011;40360;52.992;6.796;2024-02-26T05:59:07;12.43;;;6.95;;
54125;SDS011;40360;52.992;6.796;2024-02-26T06:01:38;10.30;;;6.13;;
54125;SDS011;40360;52.992;6.796;2024-02-26T06:04:08;8.77;;;6.35;;
54125;SDS011;40360;52.992;6.796;2024-02-26T06:06:47;7.85;;;5.20;;
54125;SDS011;40360;52.992;6.796;2024-02-26T06:09:12;7.25;;;4.90;;
54125;SDS011;40360;52.992;6.796;2024-02-26T06:11:39;9.77;;;5.35;;
54125;SDS011;40360;52.992;6.796;2024-02-26T06:14:05;9.82;;;5.57;;
54125;SDS011;40360;52.992;6.796;2024-02-26T06:16:34;8.57;;;5.47;;
54125;SDS011;40360;52.992;6.796;2024-02-26T06:19:01;7.40;;;5.25;;
54125;SDS011;40360;52.992;6.796;2024-02-26T06:21:27;8.15;;;5.75;;
54125;SDS011;40360;52.992;6.796;2024-02-26T06:23:52;7.75;;;5.40;;
54125;SDS011;40360;52.992;6.796;2024-02-26T06:26:18;6.95;;;5.38;;
54125;SDS011;40360;52.992;6.796;2024-02-26T06:28:44;7.60;;;5.28;;
54125;SDS011;40360;52.992;6.796;2024-02-26T06:31:09;8.15;;;5.85;;
54125;SDS011;40360;52.992;6.796;2024-02-26T06:33:35;6.70;;;4.63;;
54125;SDS011;40360;52.992;6.796;2024-02-26T06:36:01;7.45;;;5.38;;
54125;SDS011;40360;52.992;6.796;2024-02-26T06:38:26;8.50;;;5.35;;
54125;SDS011;40360;52.992;6.796;2024-02-26T06:40:52;7.00;;;4.93;;
54125;SDS011;40360;52.992;6.796;2024-02-26T06:43:18;9.50;;;5.72;;
54125;SDS011;40360;52.992;6.796;2024-02-26T06:45:44;6.50;;;4.90;;
54125;SDS011;40360;52.992;6.796;2024-02-26T06:48:10;6.93;;;5.45;;
54125;SDS011;40360;52.992;6.796;2024-02-26T06:50:35;7.15;;;4.88;;
54125;SDS011;40360;52.992;6.796;2024-02-26T06:53:01;5.75;;;4.60;;
54125;SDS011;40360;52.992;6.796;2024-02-26T06:55:27;6.22;;;4.88;;
54125;SDS011;40360;52.992;6.796;2024-02-26T06:57:53;7.18;;;5.13;;
54125;SDS011;40360;52.992;6.796;2024-02-26T07:00:18;5.97;;;4.28;;
54125;SDS011;40360;52.992;6.796;2024-02-26T07:02:44;7.38;;;4.60;;
54125;SDS011;40360;52.992;6.796;2024-02-26T07:05:10;8.88;;;5.00;;
54125;SDS011;40360;52.992;6.796;2024-02-26T07:07:36;8.60;;;5.50;;
54125;SDS011;40360;52.992;6.796;2024-02-26T07:10:02;8.43;;;4.97;;
54125;SDS011;40360;52.992;6.796;2024-02-26T07:12:31;10.05;;;5.00;;
54125;SDS011;40360;52.992;6.796;2024-02-26T07:14:57;5.85;;;4.50;;
54125;SDS011;40360;52.992;6.796;2024-02-26T07:17:23;6.05;;;5.00;;
54125;SDS011;40360;52.992;6.796;2024-02-26T07:19:49;7.13;;;4.97;;
54125;SDS011;40360;52.992;6.796;2024-02-26T07:22:15;6.40;;;4.72;;
54125;SDS011;40360;52.992;6.796;2024-02-26T07:24:41;6.50;;;4.95;;
54125;SDS011;40360;52.992;6.796;2024-02-26T07:27:06;5.90;;;4.47;;
54125;SDS011;40360;52.992;6.796;2024-02-26T07:29:32;5.68;;;4.97;;
54125;SDS011;40360;52.992;6.796;2024-02-26T07:31:58;9.05;;;5.07;;
54125;SDS011;40360;52.992;6.796;2024-02-26T07:34:24;7.50;;;5.10;;
54125;SDS011;40360;52.992;6.796;2024-02-26T07:36:54;8.48;;;5.47;;
54125;SDS011;40360;52.992;6.796;2024-02-26T07:39:21;7.50;;;5.47;;
54125;SDS011;40360;52.992;6.796;2024-02-26T07:41:46;8.40;;;4.95;;
54125;SDS011;40360;52.992;6.796;2024-02-26T07:44:15;8.48;;;5.80;;
54125;SDS011;40360;52.992;6.796;2024-02-26T07:46:41;7.13;;;5.70;;
54125;SDS011;40360;52.992;6.796;2024-02-26T07:49:06;7.43;;;5.25;;
54125;SDS011;40360;52.992;6.796;2024-02-26T07:51:33;6.65;;;5.38;;
54125;SDS011;40360;52.992;6.796;2024-02-26T07:53:59;6.80;;;5.45;;
54125;SDS011;40360;52.992;6.796;2024-02-26T07:56:26;6.90;;;6.00;;
54125;SDS011;40360;52.992;6.796;2024-02-26T07:58:52;8.88;;;5.88;;
54125;SDS011;40360;52.992;6.796;2024-02-26T08:01:17;7.38;;;4.97;;
54125;SDS011;40360;52.992;6.796;2024-02-26T08:03:43;6.82;;;4.88;;
54125;SDS011;40360;52.992;6.796;2024-02-26T08:06:09;7.22;;;5.53;;
54125;SDS011;40360;52.992;6.796;2024-02-26T08:08:35;7.10;;;5.10;;
54125;SDS011;40360;52.992;6.796;2024-02-26T08:11:00;5.90;;;5.15;;
54125;SDS011;40360;52.992;6.796;2024-02-26T08:13:26;6.20;;;5.07;;
54125;SDS011;40360;52.992;6.796;2024-02-26T08:15:52;9.80;;;5.95;;
54125;SDS011;40360;52.992;6.796;2024-02-26T08:18:18;7.25;;;5.90;;
54125;SDS011;40360;52.992;6.796;2024-02-26T08:20:44;6.28;;;5.00;;
54125;SDS011;40360;52.992;6.796;2024-02-26T08:23:10;6.68;;;5.32;;
54125;SDS011;40360;52.992;6.796;2024-02-26T08:25:36;6.22;;;5.25;;
54125;SDS011;40360;52.992;6.796;2024-02-26T08:28:01;6.82;;;5.13;;
54125;SDS011;40360;52.992;6.796;2024-02-26T08:30:28;7.20;;;5.95;;
54125;SDS011;40360;52.992;6.796;2024-02-26T08:32:53;7.25;;;5.10;;
54125;SDS011;40360;52.992;6.796;2024-02-26T08:35:19;7.80;;;5.60;;
54125;SDS011;40360;52.992;6.796;2024-02-26T08:37:45;7.53;;;6.05;;
54125;SDS011;40360;52.992;6.796;2024-02-26T08:40:12;9.23;;;6.10;;
54125;SDS011;40360;52.992;6.796;2024-02-26T08:42:38;8.93;;;6.30;;
54125;SDS011;40360;52.992;6.796;2024-02-26T09:02:36;7.20;;;5.47;;
54125;SDS011;40360;52.992;6.796;2024-02-26T09:05:04;8.10;;;5.22;;
54125;SDS011;40360;52.992;6.796;2024-02-26T09:07:30;7.97;;;6.30;;
54125;SDS011;40360;52.992;6.796;2024-02-26T09:09:56;9.38;;;5.97;;
54125;SDS011;40360;52.992;6.796;2024-02-26T09:12:22;8.55;;;6.18;;
54125;SDS011;40360;52.992;6.796;2024-02-26T09:14:48;8.20;;;6.50;;
54125;SDS011;40360;52.992;6.796;2024-02-26T09:17:14;6.63;;;5.35;;
54125;SDS011;40360;52.992;6.796;2024-02-26T09:19:40;7.32;;;5.85;;
54125;SDS011;40360;52.992;6.796;2024-02-26T09:22:07;6.25;;;4.82;;
54125;SDS011;40360;52.992;6.796;2024-02-26T09:24:33;9.05;;;5.95;;
54125;SDS011;40360;52.992;6.796;2024-02-26T09:26:58;7.57;;;5.50;;
54125;SDS011;40360;52.992;6.796;2024-02-26T09:29:24;6.85;;;5.75;;
54125;SDS011;40360;52.992;6.796;2024-02-26T09:31:51;10.32;;;5.80;;
54125;SDS011;40360;52.992;6.796;2024-02-26T09:34:18;6.63;;;4.90;;
54125;SDS011;40360;52.992;6.796;2024-02-26T09:36:43;6.15;;;4.80;;
54125;SDS011;40360;52.992;6.796;2024-02-26T09:39:09;12.35;;;6.68;;
54125;SDS011;40360;52.992;6.796;2024-02-26T09:41:36;8.07;;;5.70;;
54125;SDS011;40360;52.992;6.796;2024-02-26T09:44:02;8.27;;;5.85;;
54125;SDS011;40360;52.992;6.796;2024-02-26T09:46:30;8.30;;;5.97;;
54125;SDS011;40360;52.992;6.796;2024-02-26T09:48:56;6.55;;;5.28;;
54125;SDS011;40360;52.992;6.796;2024-02-26T09:51:23;7.63;;;5.43;;
54125;SDS011;40360;52.992;6.796;2024-02-26T09:53:52;8.13;;;6.18;;
54125;SDS011;40360;52.992;6.796;2024-02-26T09:56:18;6.93;;;5.78;;
54125;SDS011;40360;52.992;6.796;2024-02-26T09:58:45;8.05;;;5.72;;
54125;SDS011;40360;52.992;6.796;2024-02-26T10:01:16;7.30;;;5.65;;
54125;SDS011;40360;52.992;6.796;2024-02-26T10:03:43;9.13;;;6.50;;
54125;SDS011;40360;52.992;6.796;2024-02-26T10:06:11;8.05;;;5.93;;
54125;SDS011;40360;52.992;6.796;2024-02-26T10:08:38;7.35;;;5.38;;
54125;SDS011;40360;52.992;6.796;2024-02-26T10:11:05;7.20;;;5.25;;
54125;SDS011;40360;52.992;6.796;2024-02-26T10:13:34;7.75;;;5.78;;
54125;SDS011;40360;52.992;6.796;2024-02-26T10:16:01;7.25;;;5.55;;
54125;SDS011;40360;52.992;6.796;2024-02-26T10:18:44;7.82;;;6.05;;
54125;SDS011;40360;52.992;6.796;2024-02-26T10:21:18;8.38;;;6.00;;
54125;SDS011;40360;52.992;6.796;2024-02-26T10:23:46;7.05;;;5.90;;
54125;SDS011;40360;52.992;6.796;2024-02-26T10:26:13;7.22;;;5.50;;
54125;SDS011;40360;52.992;6.796;2024-02-26T10:28:42;7.68;;;5.80;;
54125;SDS011;40360;52.992;6.796;2024-02-26T10:31:08;7.50;;;6.28;;
54125;SDS011;40360;52.992;6.796;2024-02-26T10:33:35;7.95;;;5.70;;
54125;SDS011;40360;52.992;6.796;2024-02-26T10:36:05;7.20;;;5.20;;
54125;SDS011;40360;52.992;6.796;2024-02-26T10:38:32;7.55;;;5.10;;
54125;SDS011;40360;52.992;6.796;2024-02-26T10:41:01;8.55;;;6.10;;
54125;SDS011;40360;52.992;6.796;2024-02-26T10:43:31;6.25;;;4.72;;
54125;SDS011;40360;52.992;6.796;2024-02-26T10:45:57;9.48;;;5.78;;
54125;SDS011;40360;52.992;6.796;2024-02-26T10:48:23;7.07;;;5.15;;
54125;SDS011;40360;52.992;6.796;2024-02-26T10:50:49;6.78;;;5.10;;
54125;SDS011;40360;52.992;6.796;2024-02-26T10:53:22;6.18;;;4.45;;
54125;SDS011;40360;52.992;6.796;2024-02-26T10:55:52;6.70;;;4.95;;
54125;SDS011;40360;52.992;6.796;2024-02-26T10:58:28;6.55;;;4.72;;
54125;SDS011;40360;52.992;6.796;2024-02-26T11:00:56;6.75;;;4.78;;
54125;SDS011;40360;52.992;6.796;2024-02-26T11:03:22;7.43;;;4.72;;
54125;SDS011;40360;52.992;6.796;2024-02-26T11:05:49;7.15;;;4.45;;
54125;SDS011;40360;52.992;6.796;2024-02-26T11:08:16;5.65;;;4.50;;
54125;SDS011;40360;52.992;6.796;2024-02-26T11:10:44;6.10;;;4.40;;
54125;SDS011;40360;52.992;6.796;2024-02-26T11:13:15;8.63;;;5.10;;
54125;SDS011;40360;52.992;6.796;2024-02-26T11:15:44;5.88;;;4.75;;
54125;SDS011;40360;52.992;6.796;2024-02-26T11:18:13;6.30;;;4.60;;
54125;SDS011;40360;52.992;6.796;2024-02-26T11:20:40;5.45;;;4.47;;
54125;SDS011;40360;52.992;6.796;2024-02-26T11:23:06;6.80;;;4.35;;
54125;SDS011;40360;52.992;6.796;2024-02-26T11:25:33;6.40;;;4.72;;
54125;SDS011;40360;52.992;6.796;2024-02-26T11:28:00;5.97;;;4.63;;
54125;SDS011;40360;52.992;6.796;2024-02-26T11:30:30;6.18;;;4.40;;
54125;SDS011;40360;52.992;6.796;2024-02-26T11:32:59;8.30;;;4.78;;
54125;SDS011;40360;52.992;6.796;2024-02-26T11:35:26;5.43;;;3.97;;
54125;SDS011;40360;52.992;6.796;2024-02-26T11:37:56;4.85;;;3.33;;
54125;SDS011;40360;52.992;6.796;2024-02-26T11:40:23;6.88;;;4.72;;
54125;SDS011;40360;52.992;6.796;2024-02-26T11:42:53;6.20;;;4.20;;
54125;SDS011;40360;52.992;6.796;2024-02-26T11:48:04;5.95;;;3.90;;
54125;SDS011;40360;52.992;6.796;2024-02-26T11:50:41;4.93;;;3.67;;
54125;SDS011;40360;52.992;6.796;2024-02-26T11:53:24;7.18;;;4.65;;
54125;SDS011;40360;52.992;6.796;2024-02-26T11:58:45;5.50;;;3.90;;
54125;SDS011;40360;52.992;6.796;2024-02-26T12:04:06;5.57;;;4.47;;
54125;SDS011;40360;52.992;6.796;2024-02-26T12:06:55;6.95;;;4.28;;
54125;SDS011;40360;52.992;6.796;2024-02-26T12:09:31;5.30;;;3.88;;
54125;SDS011;40360;52.992;6.796;2024-02-26T12:14:51;6.50;;;4.03;;
54125;SDS011;40360;52.992;6.796;2024-02-26T12:17:21;5.93;;;4.38;;
54125;SDS011;40360;52.992;6.796;2024-02-26T12:19:48;5.40;;;4.20;;
54125;SDS011;40360;52.992;6.796;2024-02-26T12:22:14;5.82;;;4.05;;
54125;SDS011;40360;52.992;6.796;2024-02-26T12:24:41;5.68;;;3.90;;
54125;SDS011;40360;52.992;6.796;2024-02-26T12:27:10;6.65;;;3.72;;
54125;SDS011;40360;52.992;6.796;2024-02-26T12:29:35;6.70;;;4.82;;
54125;SDS011;40360;52.992;6.796;2024-02-26T12:32:01;7.30;;;4.70;;
54125;SDS011;40360;52.992;6.796;2024-02-26T12:34:29;6.10;;;4.82;;
54125;SDS011;40360;52.992;6.796;2024-02-26T12:36:56;6.35;;;4.75;;
54125;SDS011;40360;52.992;6.796;2024-02-26T12:39:23;7.28;;;5.10;;
54125;SDS011;40360;52.992;6.796;2024-02-26T12:41:49;6.53;;;4.93;;
54125;SDS011;40360;52.992;6.796;2024-02-26T12:44:15;6.85;;;4.85;;
54125;SDS011;40360;52.992;6.796;2024-02-26T12:46:41;7.82;;;5.18;;
54125;SDS011;40360;52.992;6.796;2024-02-26T12:49:07;9.10;;;5.88;;
54125;SDS011;40360;52.992;6.796;2024-02-26T12:51:33;9.77;;;5.57;;
54125;SDS011;40360;52.992;6.796;2024-02-26T12:54:00;8.63;;;6.13;;
54125;SDS011;40360;52.992;6.796;2024-02-26T12:56:27;8.65;;;6.13;;
54125;SDS011;40360;52.992;6.796;2024-02-26T12:58:53;8.70;;;6.43;;
54125;SDS011;40360;52.992;6.796;2024-02-26T13:01:21;9.38;;;6.55;;
54125;SDS011;40360;52.992;6.796;2024-02-26T13:03:49;9.10;;;6.50;;
54125;SDS011;40360;52.992;6.796;2024-02-26T13:06:16;8.45;;;5.55;;
54125;SDS011;40360;52.992;6.796;2024-02-26T13:08:43;7.70;;;6.25;;
54125;SDS011;40360;52.992;6.796;2024-02-26T13:11:09;8.93;;;6.72;;
54125;SDS011;40360;52.992;6.796;2024-02-26T13:13:35;8.40;;;6.20;;
54125;SDS011;40360;52.992;6.796;2024-02-26T13:16:02;9.20;;;6.32;;
54125;SDS011;40360;52.992;6.796;2024-02-26T13:18:33;8.50;;;7.13;;
54125;SDS011;40360;52.992;6.796;2024-02-26T13:23:58;9.77;;;6.93;;
54125;SDS011;40360;52.992;6.796;2024-02-26T13:26:24;10.77;;;6.07;;
54125;SDS011;40360;52.992;6.796;2024-02-26T13:29:02;9.27;;;6.60;;
54125;SDS011;40360;52.992;6.796;2024-02-26T13:31:30;10.00;;;7.38;;
54125;SDS011;40360;52.992;6.796;2024-02-26T13:33:57;8.73;;;6.65;;
54125;SDS011;40360;52.992;6.796;2024-02-26T13:36:23;8.73;;;6.97;;
54125;SDS011;40360;52.992;6.796;2024-02-26T13:38:52;8.00;;;6.57;;
54125;SDS011;40360;52.992;6.796;2024-02-26T13:41:19;9.00;;;6.30;;
54125;SDS011;40360;52.992;6.796;2024-02-26T13:43:48;9.27;;;6.72;;
54125;SDS011;40360;52.992;6.796;2024-02-26T13:46:14;9.00;;;6.75;;
54125;SDS011;40360;52.992;6.796;2024-02-26T13:48:41;9.30;;;7.30;;
54125;SDS011;40360;52.992;6.796;2024-02-26T13:51:07;9.73;;;7.28;;
54125;SDS011;40360;52.992;6.796;2024-02-26T13:53:33;10.38;;;7.57;;
54125;SDS011;40360;52.992;6.796;2024-02-26T13:55:58;10.90;;;7.72;;
54125;SDS011;40360;52.992;6.796;2024-02-26T13:58:26;10.07;;;6.82;;
54125;SDS011;40360;52.992;6.796;2024-02-26T14:01:02;11.00;;;7.50;;
54125;SDS011;40360;52.992;6.796;2024-02-26T14:03:28;10.57;;;7.65;;
54125;SDS011;40360;52.992;6.796;2024-02-26T14:05:54;11.10;;;8.13;;
54125;SDS011;40360;52.992;6.796;2024-02-26T14:08:21;10.98;;;7.20;;
54125;SDS011;40360;52.992;6.796;2024-02-26T14:10:48;9.57;;;7.55;;
54125;SDS011;40360;52.992;6.796;2024-02-26T14:13:14;10.48;;;7.72;;
54125;SDS011;40360;52.992;6.796;2024-02-26T14:15:40;11.07;;;8.40;;
54125;SDS011;40360;52.992;6.796;2024-02-26T14:18:06;12.82;;;7.80;;
54125;SDS011;40360;52.992;6.796;2024-02-26T14:20:32;12.13;;;8.43;;
54125;SDS011;40360;52.992;6.796;2024-02-26T14:22:58;13.40;;;8.63;;
54125;SDS011;40360;52.992;6.796;2024-02-26T14:25:33;11.00;;;8.30;;
54125;SDS011;40360;52.992;6.796;2024-02-26T14:27:59;12.10;;;8.35;;
54125;SDS011;40360;52.992;6.796;2024-02-26T14:30:25;12.88;;;9.27;;
54125;SDS011;40360;52.992;6.796;2024-02-26T14:32:51;12.90;;;8.90;;
54125;SDS011;40360;52.992;6.796;2024-02-26T14:35:17;12.52;;;8.02;;
54125;SDS011;40360;52.992;6.796;2024-02-26T14:37:43;13.27;;;8.80;;
54125;SDS011;40360;52.992;6.796;2024-02-26T14:40:13;14.73;;;8.60;;
54125;SDS011;40360;52.992;6.796;2024-02-26T14:42:39;13.95;;;10.05;;
54125;SDS011;40360;52.992;6.796;2024-02-26T14:45:06;15.20;;;10.38;;
54125;SDS011;40360;52.992;6.796;2024-02-26T14:47:37;13.80;;;8.65;;
54125;SDS011;40360;52.992;6.796;2024-02-26T14:50:04;13.93;;;10.02;;
54125;SDS011;40360;52.992;6.796;2024-02-26T14:52:30;16.23;;;10.25;;
54125;SDS011;40360;52.992;6.796;2024-02-26T14:54:56;17.35;;;9.95;;
54125;SDS011;40360;52.992;6.796;2024-02-26T14:57:23;11.13;;;8.38;;
54125;SDS011;40360;52.992;6.796;2024-02-26T14:59:49;16.35;;;10.25;;
54125;SDS011;40360;52.992;6.796;2024-02-26T15:02:16;15.38;;;10.35;;
54125;SDS011;40360;52.992;6.796;2024-02-26T15:04:42;13.13;;;7.75;;
54125;SDS011;40360;52.992;6.796;2024-02-26T15:07:09;13.13;;;8.52;;
54125;SDS011;40360;52.992;6.796;2024-02-26T15:09:36;12.68;;;9.43;;
54125;SDS011;40360;52.992;6.796;2024-02-26T15:12:03;11.70;;;8.57;;
54125;SDS011;40360;52.992;6.796;2024-02-26T15:14:31;12.93;;;8.68;;
54125;SDS011;40360;52.992;6.796;2024-02-26T15:16:57;13.43;;;9.25;;